Weather observations for the past three days for
Wendover Airport
Metric (Imperial)
Date Time (mdt) Wind (kph) Vis. (km) Weather Sky Cond. Temperature (ºC) Relative Humidity Wind Chill (°C) Heat Index (°C) Pressure Precipitation (cm)
Air Dwpt 6 hour altimeter (cm) sea level (mb) 1 hr 3 hr 6 hr
Max. Min.
02 17:56 W 26 16.09 Fair CLR 26.7 -7.8 28.9 25.6 10% 26 75.97 1009.2
02 16:56 W 26 16.09 Fair CLR 27.8 -7.8 9% 26 75.97 1009.0
02 15:56 W 24 G 33 16.09 Fair CLR 28.3 -7.2 9% 27 76 1009.1
02 14:56 W 19 G 33 16.09 Fair CLR 28.3 -7.8 9% 27 76.02 1009.5
02 13:56 W 7 16.09 Fair CLR 27.2 -7.8 9% 26 76.07 1010.2
02 12:56 Vrbl 9 16.09 Fair CLR 26.7 -7.8 10% 26 76.12 1011.1
02 11:56 W 22 16.09 Fair CLR 26.1 -7.8 26.1 14.4 10% 25 76.15 1011.2
02 10:56 SW 13 16.09 Fair CLR 25.6 -8.3 10% 25 76.12 1011.0
02 09:56 SW 24 16.09 Fair CLR 25 -8.9 10% 24 76.1 1010.4
02 08:56 SW 17 16.09 Fair CLR 22.2 -6.7 14% 76.1 1010.6
02 07:56 SW 24 16.09 Fair CLR 17.8 -6.1 19% 76.05 1010.2
02 06:56 W 9 16.09 Fair CLR 16.1 -4.4 24% 76.02 1009.6
02 05:56 S 20 16.09 Fair CLR 16.1 -4.4 21.7 16.1 24% 76 1009.3
02 04:56 S 22 16.09 Fair CLR 17.2 -4.4 23% 75.97 1008.7
02 03:56 S 26 16.09 Fair CLR 18.3 -4.4 21% 75.97 1008.8
02 02:56 S 17 16.09 Fair CLR 17.8 -5 21% 75.95 1009.1
02 01:56 S 13 16.09 Fair CLR 18.9 -3.9 21% 75.97 1009.4
02 00:56 Vrbl 6 16.09 Fair CLR 18.3 -3.3 23% 75.92 1009.0
01 23:56 S 13 16.09 Fair CLR 21.1 -3.3 30 20.6 19% 75.92 1008.9
01 22:56 SW 9 16.09 Fair CLR 22.2 0 23% 75.95 1009.0
01 21:56 S 13 16.09 Fair CLR 22.8 1.7 25% 75.92 1008.8
01 20:56 S 17 16.09 Fair CLR 25 1.1 21% 25 75.9 1008.2
01 19:56 S 20 16.09 Fair CLR 27.8 1.7 18% 27 75.87 1007.9
01 18:56 S 28 16.09 Fair CLR 29.4 3.3 19% 28 75.9 1008.0
01 17:56 S 30 G 35 16.09 Fair CLR 30 4.4 30 20.6 20% 28 75.92 1008.4
01 16:56 SE 17 G 31 16.09 Fair CLR 30 7.2 24% 28 76 1009.3
01 15:56 SE 7 16.09 Fair CLR 28.3 10.6 33% 27 76.05 1010.2
01 14:56 E 11 16.09 Fair CLR 25 11.1 42% 26 76.17 1012.4
01 13:56 SE 13 16.09 Fair CLR 23.3 10 43% 76.28 1013.7
01 12:56 E 11 16.09 Fair CLR 22.2 9.4 44% 76.35 1014.9
01 11:56 E 11 16.09 Fair CLR 20.6 10 20.6 13.9 51% 76.4 1015.7
01 10:56 E 13 16.09 Fair CLR 18.9 10.6 59% 76.4 1016.0
01 09:56 E 13 16.09 Fair CLR 17.8 10.6 63% 76.4 1016.0
01 08:56 NE 9 16.09 Fair CLR 16.7 10.6 67% 76.4 1016.0
01 07:56 NE 9 16.09 Fair CLR 15 10 72% 76.38 1015.7
01 06:56 Calm 16.09 Fair CLR 14.4 10 75% 76.35 1015.0
01 05:56 NE 15 16.09 Fair CLR 14.4 10 17.8 14.4 75% 76.35 1014.7
01 04:56 NE 13 16.09 Fair CLR 14.4 10 75% 76.35 1014.6
01 03:56 NE 19 16.09 Fair CLR 15.6 10 70% 76.33 1014.0
01 02:56 NE 13 16.09 Fair CLR 15 10 72% 76.33 1014.4
01 01:56 Calm 16.09 Fair CLR 16.1 10 67% 76.4 1015.0
01 00:56 Vrbl 11 16.09 Fair CLR 16.7 10.6 67% 76.38 1014.8
31 23:56 S 13 16.09 Fair CLR 17.8 11.1 27.2 17.8 65% 76.38 1014.7
31 22:56 SE 22 G 30 16.09 Fair CLR 18.3 10.6 61% 76.38 1014.9
31 21:56 SE 33 G 44 16.09 Fair and Breezy CLR 19.4 10 55% 76.33 1014.3
31 20:56 SE 39 16.09 Fair and Breezy CLR 20.6 10 51% 76.25 1013.4
31 19:56 SE 30 16.09 Fair CLR 22.8 7.8 38% 76.23 1013.1
31 18:56 S 37 16.09 Fair and Breezy CLR 24.4 6.1 31% 25 76.15 1012.0
31 17:56 S 19 16.09 Fair CLR 26.7 7.2 27.8 25 29% 26 76.15 1011.6
31 16:56 SE 7 16.09 Fair CLR 26.7 7.8 30% 26 76.17 1012.1
31 15:56 SE 13 16.09 Fair CLR 27.2 7.2 28% 26 76.17 1011.8
31 14:56 E 15 16.09 Fair CLR 27.2 5.6 25% 26 76.23 1012.6
31 13:56 E 17 16.09 Fair CLR 26.7 4.4 24% 26 76.28 1013.1
31 12:56 SE 11 16.09 Fair CLR 25 3.9 26% 25 76.38 1014.3
31 11:56 SE 11 16.09 Fair CLR 25.6 3.3 25.6 15 24% 25 76.4 1014.8
31 10:56 E 7 16.09 Fair CLR 23.9 2.2 24% 25 76.43 1015.5
31 09:56 Calm 16.09 Fair CLR 22.8 2.2 26% 76.43 1015.2
31 08:56 Calm 16.09 Fair CLR 19.4 2.8 33% 76.43 1015.7
31 07:56 Calm 16.09 Fair CLR 16.7 5 46% 76.4 1015.2
31 06:56 S 13 16.09 Fair CLR 16.1 3.9 44% 76.35 1014.5
31 05:56 E 6 16.09 Fair CLR 16.1 4.4 22.2 15 46% 76.35 1014.3
31 03:56 SW 6 16.09 Fair CLR 18.9 4.4 39% 76.35 1013.9
31 02:56 Calm 16.09 Fair CLR 17.8 3.3 38% 76.38 1014.4
31 01:56 S 7 16.09 Fair CLR 19.4 3.9 36% 76.38 1014.4
31 00:56 N 20 16.09 Fair CLR 21.7 2.2 28% 76.38 1014.2
30 23:56 N 33 G 41 16.09 Fair and Breezy CLR 22.2 1.7 28.9 20 26% 76.33 1013.7
30 22:56 W 9 16.09 Fair CLR 20.6 8.3 45% 76.33 1014.0
30 21:56 NE 7 16.09 Fair CLR 22.8 6.7 35% 76.3 1013.8
30 20:56 NE 11 16.09 Fair CLR 22.8 8.9 41% 76.25 1013.3
30 19:56 E 9 16.09 Fair CLR 26.1 5.6 27% 26 76.23 1012.5
Date Time (mdt) Wind (kph) Vis. (km) Weather Sky Cond. Air Dwpt Max. Min. Relative Humidity Wind Chill (°C) Heat Index (°C) altimeter (cm) sea level (mb) 1 hr 3 hr 6 hr
6 hour
Temperature (ºC) Pressure Precipitation (cm)